sensor_id;sensor_type;location;lat;lon;timestamp;P1;P2;P0
53658;PMS5003;41524;35.624;139.698;2023-01-15T00:00:09;12.00;7.00;
53658;PMS5003;41524;35.624;139.698;2023-01-15T00:05:15;8.00;8.00;
53658;PMS5003;41524;35.624;139.698;2023-01-15T00:10:10;8.00;7.00;
53658;PMS5003;41524;35.624;139.698;2023-01-15T00:15:10;11.00;7.00;
53658;PMS5003;41524;35.624;139.698;2023-01-15T00:20:09;10.00;8.00;
53658;PMS5003;41524;35.624;139.698;2023-01-15T00:25:14;11.00;8.00;
53658;PMS5003;41524;35.624;139.698;2023-01-15T00:30:15;6.00;6.00;
53658;PMS5003;41524;35.624;139.698;2023-01-15T00:35:11;5.00;5.00;
53658;PMS5003;41524;35.624;139.698;2023-01-15T00:40:18;6.00;5.00;
53658;PMS5003;41524;35.624;139.698;2023-01-15T00:45:10;7.00;6.00;
53658;PMS5003;41524;35.624;139.698;2023-01-15T00:50:15;4.00;4.00;
53658;PMS5003;41524;35.624;139.698;2023-01-15T00:55:14;10.00;7.00;
53658;PMS5003;41524;35.624;139.698;2023-01-15T01:00:10;5.00;5.00;
53658;PMS5003;41524;35.624;139.698;2023-01-15T01:05:09;8.00;7.00;
53658;PMS5003;41524;35.624;139.698;2023-01-15T01:10:10;6.00;6.00;
53658;PMS5003;41524;35.624;139.698;2023-01-15T01:15:15;6.00;6.00;
53658;PMS5003;41524;35.624;139.698;2023-01-15T01:20:14;5.00;5.00;
53658;PMS5003;41524;35.624;139.698;2023-01-15T01:25:09;7.00;7.00;
53658;PMS5003;41524;35.624;139.698;2023-01-15T01:30:10;9.00;7.00;
53658;PMS5003;41524;35.624;139.698;2023-01-15T01:35:13;6.00;6.00;
53658;PMS5003;41524;35.624;139.698;2023-01-15T01:40:21;12.00;11.00;
53658;PMS5003;41524;35.624;139.698;2023-01-15T01:45:13;6.00;6.00;
53658;PMS5003;41524;35.624;139.698;2023-01-15T01:50:14;11.00;9.00;
53658;PMS5003;41524;35.624;139.698;2023-01-15T01:55:15;5.00;5.00;
53658;PMS5003;41524;35.624;139.698;2023-01-15T02:00:15;10.00;9.00;
53658;PMS5003;41524;35.624;139.698;2023-01-15T02:05:11;8.00;6.00;
53658;PMS5003;41524;35.624;139.698;2023-01-15T02:10:12;6.00;6.00;
53658;PMS5003;41524;35.624;139.698;2023-01-15T02:15:15;7.00;7.00;
53658;PMS5003;41524;35.624;139.698;2023-01-15T02:20:17;14.00;14.00;
53658;PMS5003;41524;35.624;139.698;2023-01-15T02:25:12;8.00;8.00;
53658;PMS5003;41524;35.624;139.698;2023-01-15T02:30:22;7.00;7.00;
53658;PMS5003;41524;35.624;139.698;2023-01-15T02:35:11;8.00;7.00;
53658;PMS5003;41524;35.624;139.698;2023-01-15T02:40:09;13.00;12.00;
53658;PMS5003;41524;35.624;139.698;2023-01-15T02:45:08;7.00;7.00;
53658;PMS5003;41524;35.624;139.698;2023-01-15T02:50:13;8.00;7.00;
53658;PMS5003;41524;35.624;139.698;2023-01-15T02:55:10;7.00;6.00;
53658;PMS5003;41524;35.624;139.698;2023-01-15T03:05:12;7.00;6.00;
53658;PMS5003;41524;35.624;139.698;2023-01-15T03:10:10;7.00;6.00;
53658;PMS5003;41524;35.624;139.698;2023-01-15T03:15:09;7.00;7.00;
53658;PMS5003;41524;35.624;139.698;2023-01-15T03:20:10;8.00;6.00;
53658;PMS5003;41524;35.624;139.698;2023-01-15T03:25:10;6.00;6.00;
53658;PMS5003;41524;35.624;139.698;2023-01-15T03:30:11;10.00;8.00;
53658;PMS5003;41524;35.624;139.698;2023-01-15T03:35:38;7.00;6.00;
53658;PMS5003;41524;35.624;139.698;2023-01-15T03:40:09;8.00;7.00;
53658;PMS5003;41524;35.624;139.698;2023-01-15T03:45:16;7.00;7.00;
53658;PMS5003;41524;35.624;139.698;2023-01-15T03:55:19;11.00;11.00;
53658;PMS5003;41524;35.624;139.698;2023-01-15T04:00:11;6.00;6.00;
53658;PMS5003;41524;35.624;139.698;2023-01-15T04:05:15;10.00;9.00;
53658;PMS5003;41524;35.624;139.698;2023-01-15T04:10:10;11.00;9.00;
53658;PMS5003;41524;35.624;139.698;2023-01-15T04:15:14;9.00;9.00;
53658;PMS5003;41524;35.624;139.698;2023-01-15T04:20:14;13.00;12.00;
53658;PMS5003;41524;35.624;139.698;2023-01-15T04:25:09;17.00;14.00;
53658;PMS5003;41524;35.624;139.698;2023-01-15T04:30:19;11.00;10.00;
53658;PMS5003;41524;35.624;139.698;2023-01-15T04:35:09;14.00;13.00;
53658;PMS5003;41524;35.624;139.698;2023-01-15T04:40:09;10.00;10.00;
53658;PMS5003;41524;35.624;139.698;2023-01-15T04:45:12;15.00;12.00;
53658;PMS5003;41524;35.624;139.698;2023-01-15T04:50:09;10.00;10.00;
53658;PMS5003;41524;35.624;139.698;2023-01-15T04:55:10;11.00;9.00;
53658;PMS5003;41524;35.624;139.698;2023-01-15T05:00:15;11.00;9.00;
53658;PMS5003;41524;35.624;139.698;2023-01-15T05:05:09;11.00;9.00;
53658;PMS5003;41524;35.624;139.698;2023-01-15T05:10:19;8.00;8.00;
53658;PMS5003;41524;35.624;139.698;2023-01-15T05:15:19;10.00;10.00;
53658;PMS5003;41524;35.624;139.698;2023-01-15T05:20:09;10.00;10.00;
53658;PMS5003;41524;35.624;139.698;2023-01-15T05:25:15;13.00;12.00;
53658;PMS5003;41524;35.624;139.698;2023-01-15T05:30:09;13.00;13.00;
53658;PMS5003;41524;35.624;139.698;2023-01-15T05:35:15;11.00;10.00;
53658;PMS5003;41524;35.624;139.698;2023-01-15T05:40:15;18.00;15.00;
53658;PMS5003;41524;35.624;139.698;2023-01-15T05:45:14;18.00;17.00;
53658;PMS5003;41524;35.624;139.698;2023-01-15T05:50:09;20.00;19.00;
53658;PMS5003;41524;35.624;139.698;2023-01-15T05:55:09;10.00;9.00;
53658;PMS5003;41524;35.624;139.698;2023-01-15T06:00:10;13.00;13.00;
53658;PMS5003;41524;35.624;139.698;2023-01-15T06:05:14;13.00;13.00;
53658;PMS5003;41524;35.624;139.698;2023-01-15T06:10:19;16.00;13.00;
53658;PMS5003;41524;35.624;139.698;2023-01-15T06:15:15;19.00;14.00;
53658;PMS5003;41524;35.624;139.698;2023-01-15T06:20:09;12.00;12.00;
53658;PMS5003;41524;35.624;139.698;2023-01-15T06:25:09;22.00;19.00;
53658;PMS5003;41524;35.624;139.698;2023-01-15T06:30:11;20.00;19.00;
53658;PMS5003;41524;35.624;139.698;2023-01-15T06:35:19;20.00;17.00;
53658;PMS5003;41524;35.624;139.698;2023-01-15T06:40:14;15.00;15.00;
53658;PMS5003;41524;35.624;139.698;2023-01-15T06:45:09;13.00;13.00;
53658;PMS5003;41524;35.624;139.698;2023-01-15T06:50:10;13.00;13.00;
53658;PMS5003;41524;35.624;139.698;2023-01-15T06:55:09;12.00;10.00;
53658;PMS5003;41524;35.624;139.698;2023-01-15T07:00:10;23.00;15.00;
53658;PMS5003;41524;35.624;139.698;2023-01-15T07:05:10;12.00;12.00;
53658;PMS5003;41524;35.624;139.698;2023-01-15T07:10:10;23.00;17.00;
53658;PMS5003;41524;35.624;139.698;2023-01-15T07:15:10;16.00;13.00;
53658;PMS5003;41524;35.624;139.698;2023-01-15T07:20:11;17.00;14.00;
53658;PMS5003;41524;35.624;139.698;2023-01-15T07:25:10;21.00;16.00;
53658;PMS5003;41524;35.624;139.698;2023-01-15T07:30:14;19.00;16.00;
53658;PMS5003;41524;35.624;139.698;2023-01-15T07:35:09;15.00;13.00;
53658;PMS5003;41524;35.624;139.698;2023-01-15T07:40:11;20.00;16.00;
53658;PMS5003;41524;35.624;139.698;2023-01-15T07:45:10;20.00;17.00;
53658;PMS5003;41524;35.624;139.698;2023-01-15T07:50:11;17.00;13.00;
53658;PMS5003;41524;35.624;139.698;2023-01-15T07:55:09;21.00;18.00;
53658;PMS5003;41524;35.624;139.698;2023-01-15T08:00:11;19.00;19.00;
53658;PMS5003;41524;35.624;139.698;2023-01-15T08:05:09;18.00;15.00;
53658;PMS5003;41524;35.624;139.698;2023-01-15T08:10:10;17.00;16.00;
53658;PMS5003;41524;35.624;139.698;2023-01-15T08:15:09;22.00;20.00;
53658;PMS5003;41524;35.624;139.698;2023-01-15T08:20:09;26.00;23.00;
53658;PMS5003;41524;35.624;139.698;2023-01-15T08:25:10;23.00;19.00;
53658;PMS5003;41524;35.624;139.698;2023-01-15T08:30:15;32.00;27.00;
53658;PMS5003;41524;35.624;139.698;2023-01-15T08:35:09;31.00;30.00;
53658;PMS5003;41524;35.624;139.698;2023-01-15T08:40:18;26.00;25.00;
53658;PMS5003;41524;35.624;139.698;2023-01-15T08:45:09;33.00;29.00;
53658;PMS5003;41524;35.624;139.698;2023-01-15T08:50:10;24.00;21.00;
53658;PMS5003;41524;35.624;139.698;2023-01-15T08:55:11;22.00;20.00;
53658;PMS5003;41524;35.624;139.698;2023-01-15T09:00:14;23.00;19.00;
53658;PMS5003;41524;35.624;139.698;2023-01-15T09:05:15;25.00;22.00;
53658;PMS5003;41524;35.624;139.698;2023-01-15T09:10:11;32.00;28.00;
53658;PMS5003;41524;35.624;139.698;2023-01-15T09:15:10;34.00;31.00;
53658;PMS5003;41524;35.624;139.698;2023-01-15T09:20:11;33.00;33.00;
53658;PMS5003;41524;35.624;139.698;2023-01-15T09:25:14;38.00;34.00;
53658;PMS5003;41524;35.624;139.698;2023-01-15T09:30:10;33.00;26.00;
53658;PMS5003;41524;35.624;139.698;2023-01-15T09:35:11;29.00;26.00;
53658;PMS5003;41524;35.624;139.698;2023-01-15T09:40:19;32.00;29.00;
53658;PMS5003;41524;35.624;139.698;2023-01-15T09:45:17;35.00;30.00;
53658;PMS5003;41524;35.624;139.698;2023-01-15T09:50:22;29.00;29.00;
53658;PMS5003;41524;35.624;139.698;2023-01-15T09:55:14;38.00;36.00;
53658;PMS5003;41524;35.624;139.698;2023-01-15T10:00:15;42.00;35.00;
53658;PMS5003;41524;35.624;139.698;2023-01-15T10:05:14;36.00;35.00;
53658;PMS5003;41524;35.624;139.698;2023-01-15T10:10:10;49.00;43.00;
53658;PMS5003;41524;35.624;139.698;2023-01-15T10:15:23;44.00;41.00;
53658;PMS5003;41524;35.624;139.698;2023-01-15T10:25:13;48.00;42.00;
53658;PMS5003;41524;35.624;139.698;2023-01-15T10:30:13;39.00;37.00;
53658;PMS5003;41524;35.624;139.698;2023-01-15T10:35:40;42.00;39.00;
53658;PMS5003;41524;35.624;139.698;2023-01-15T10:40:15;53.00;46.00;
53658;PMS5003;41524;35.624;139.698;2023-01-15T10:45:09;57.00;50.00;
53658;PMS5003;41524;35.624;139.698;2023-01-15T10:50:14;54.00;49.00;
53658;PMS5003;41524;35.624;139.698;2023-01-15T10:55:13;52.00;47.00;
53658;PMS5003;41524;35.624;139.698;2023-01-15T11:00:10;56.00;49.00;
53658;PMS5003;41524;35.624;139.698;2023-01-15T11:05:11;45.00;45.00;
53658;PMS5003;41524;35.624;139.698;2023-01-15T11:10:10;50.00;49.00;
53658;PMS5003;41524;35.624;139.698;2023-01-15T11:15:14;52.00;49.00;
53658;PMS5003;41524;35.624;139.698;2023-01-15T11:20:13;44.00;43.00;
53658;PMS5003;41524;35.624;139.698;2023-01-15T11:25:09;49.00;45.00;
53658;PMS5003;41524;35.624;139.698;2023-01-15T11:30:24;40.00;37.00;
53658;PMS5003;41524;35.624;139.698;2023-01-15T11:35:14;48.00;43.00;
53658;PMS5003;41524;35.624;139.698;2023-01-15T11:40:15;43.00;38.00;
53658;PMS5003;41524;35.624;139.698;2023-01-15T11:45:12;50.00;47.00;
53658;PMS5003;41524;35.624;139.698;2023-01-15T11:50:16;43.00;38.00;
53658;PMS5003;41524;35.624;139.698;2023-01-15T11:55:10;43.00;40.00;
53658;PMS5003;41524;35.624;139.698;2023-01-15T12:05:13;47.00;39.00;
53658;PMS5003;41524;35.624;139.698;2023-01-15T12:10:12;42.00;39.00;
53658;PMS5003;41524;35.624;139.698;2023-01-15T12:15:22;33.00;32.00;
53658;PMS5003;41524;35.624;139.698;2023-01-15T12:20:13;36.00;34.00;
53658;PMS5003;41524;35.624;139.698;2023-01-15T12:25:19;49.00;38.00;
53658;PMS5003;41524;35.624;139.698;2023-01-15T12:30:13;45.00;41.00;
53658;PMS5003;41524;35.624;139.698;2023-01-15T12:35:14;49.00;43.00;
53658;PMS5003;41524;35.624;139.698;2023-01-15T12:40:17;39.00;34.00;
53658;PMS5003;41524;35.624;139.698;2023-01-15T12:45:10;37.00;35.00;
53658;PMS5003;41524;35.624;139.698;2023-01-15T12:50:34;46.00;41.00;
53658;PMS5003;41524;35.624;139.698;2023-01-15T12:55:13;39.00;38.00;
53658;PMS5003;41524;35.624;139.698;2023-01-15T13:00:11;42.00;40.00;
53658;PMS5003;41524;35.624;139.698;2023-01-15T13:05:15;43.00;40.00;
53658;PMS5003;41524;35.624;139.698;2023-01-15T13:10:15;30.00;30.00;
53658;PMS5003;41524;35.624;139.698;2023-01-15T13:15:11;36.00;35.00;
53658;PMS5003;41524;35.624;139.698;2023-01-15T13:20:20;41.00;38.00;
53658;PMS5003;41524;35.624;139.698;2023-01-15T13:26:17;37.00;33.00;
53658;PMS5003;41524;35.624;139.698;2023-01-15T13:30:14;42.00;36.00;
53658;PMS5003;41524;35.624;139.698;2023-01-15T13:35:10;37.00;34.00;
53658;PMS5003;41524;35.624;139.698;2023-01-15T13:40:10;23.00;21.00;
53658;PMS5003;41524;35.624;139.698;2023-01-15T13:45:31;30.00;27.00;
53658;PMS5003;41524;35.624;139.698;2023-01-15T13:50:22;26.00;25.00;
53658;PMS5003;41524;35.624;139.698;2023-01-15T13:55:18;35.00;32.00;
53658;PMS5003;41524;35.624;139.698;2023-01-15T14:00:32;37.00;34.00;
53658;PMS5003;41524;35.624;139.698;2023-01-15T14:05:19;26.00;24.00;
53658;PMS5003;41524;35.624;139.698;2023-01-15T14:10:47;21.00;20.00;
53658;PMS5003;41524;35.624;139.698;2023-01-15T14:15:19;31.00;29.00;
53658;PMS5003;41524;35.624;139.698;2023-01-15T14:20:15;32.00;29.00;
53658;PMS5003;41524;35.624;139.698;2023-01-15T14:25:20;30.00;27.00;
53658;PMS5003;41524;35.624;139.698;2023-01-15T14:30:11;23.00;22.00;
53658;PMS5003;41524;35.624;139.698;2023-01-15T14:35:10;29.00;28.00;
53658;PMS5003;41524;35.624;139.698;2023-01-15T14:40:16;22.00;21.00;
53658;PMS5003;41524;35.624;139.698;2023-01-15T14:45:22;28.00;25.00;
53658;PMS5003;41524;35.624;139.698;2023-01-15T14:50:27;28.00;24.00;
53658;PMS5003;41524;35.624;139.698;2023-01-15T14:55:09;30.00;30.00;
53658;PMS5003;41524;35.624;139.698;2023-01-15T15:00:11;22.00;22.00;
53658;PMS5003;41524;35.624;139.698;2023-01-15T15:05:14;21.00;20.00;
53658;PMS5003;41524;35.624;139.698;2023-01-15T15:10:20;17.00;17.00;
53658;PMS5003;41524;35.624;139.698;2023-01-15T15:15:11;17.00;17.00;
53658;PMS5003;41524;35.624;139.698;2023-01-15T15:20:17;20.00;20.00;
53658;PMS5003;41524;35.624;139.698;2023-01-15T15:25:16;23.00;19.00;
53658;PMS5003;41524;35.624;139.698;2023-01-15T15:30:14;22.00;21.00;
53658;PMS5003;41524;35.624;139.698;2023-01-15T15:35:21;21.00;19.00;
53658;PMS5003;41524;35.624;139.698;2023-01-15T15:40:15;26.00;22.00;
53658;PMS5003;41524;35.624;139.698;2023-01-15T15:45:15;22.00;21.00;
53658;PMS5003;41524;35.624;139.698;2023-01-15T15:50:18;21.00;19.00;
53658;PMS5003;41524;35.624;139.698;2023-01-15T15:55:13;24.00;22.00;
53658;PMS5003;41524;35.624;139.698;2023-01-15T16:00:16;20.00;20.00;
53658;PMS5003;41524;35.624;139.698;2023-01-15T16:05:20;27.00;26.00;
53658;PMS5003;41524;35.624;139.698;2023-01-15T16:10:12;24.00;21.00;
53658;PMS5003;41524;35.624;139.698;2023-01-15T16:15:12;26.00;26.00;
53658;PMS5003;41524;35.624;139.698;2023-01-15T16:20:11;24.00;20.00;
53658;PMS5003;41524;35.624;139.698;2023-01-15T16:25:23;21.00;20.00;
53658;PMS5003;41524;35.624;139.698;2023-01-15T16:30:18;25.00;25.00;
53658;PMS5003;41524;35.624;139.698;2023-01-15T16:35:14;24.00;23.00;
53658;PMS5003;41524;35.624;139.698;2023-01-15T16:40:15;25.00;25.00;
53658;PMS5003;41524;35.624;139.698;2023-01-15T16:45:18;21.00;19.00;
53658;PMS5003;41524;35.624;139.698;2023-01-15T16:50:42;25.00;24.00;
53658;PMS5003;41524;35.624;139.698;2023-01-15T16:55:21;23.00;22.00;
53658;PMS5003;41524;35.624;139.698;2023-01-15T17:00:26;21.00;20.00;
53658;PMS5003;41524;35.624;139.698;2023-01-15T17:05:22;26.00;23.00;
53658;PMS5003;41524;35.624;139.698;2023-01-15T17:10:17;20.00;19.00;
53658;PMS5003;41524;35.624;139.698;2023-01-15T17:15:57;29.00;26.00;
53658;PMS5003;41524;35.624;139.698;2023-01-15T17:20:10;24.00;20.00;
53658;PMS5003;41524;35.624;139.698;2023-01-15T17:25:20;27.00;26.00;
53658;PMS5003;41524;35.624;139.698;2023-01-15T17:30:11;26.00;23.00;
53658;PMS5003;41524;35.624;139.698;2023-01-15T17:35:10;29.00;25.00;
53658;PMS5003;41524;35.624;139.698;2023-01-15T17:40:10;24.00;21.00;
53658;PMS5003;41524;35.624;139.698;2023-01-15T17:45:09;29.00;25.00;
53658;PMS5003;41524;35.624;139.698;2023-01-15T17:50:10;22.00;20.00;
53658;PMS5003;41524;35.624;139.698;2023-01-15T17:55:09;24.00;23.00;
53658;PMS5003;41524;35.624;139.698;2023-01-15T18:00:14;27.00;23.00;
53658;PMS5003;41524;35.624;139.698;2023-01-15T18:05:10;27.00;25.00;
53658;PMS5003;41524;35.624;139.698;2023-01-15T18:10:12;26.00;25.00;
53658;PMS5003;41524;35.624;139.698;2023-01-15T18:15:09;33.00;31.00;
53658;PMS5003;41524;35.624;139.698;2023-01-15T18:20:11;43.00;33.00;
53658;PMS5003;41524;35.624;139.698;2023-01-15T18:25:10;27.00;24.00;
53658;PMS5003;41524;35.624;139.698;2023-01-15T18:30:09;26.00;24.00;
53658;PMS5003;41524;35.624;139.698;2023-01-15T18:35:08;26.00;26.00;
53658;PMS5003;41524;35.624;139.698;2023-01-15T18:40:10;28.00;25.00;
53658;PMS5003;41524;35.624;139.698;2023-01-15T18:45:14;24.00;23.00;
53658;PMS5003;41524;35.624;139.698;2023-01-15T18:50:09;26.00;25.00;
53658;PMS5003;41524;35.624;139.698;2023-01-15T18:55:09;36.00;31.00;
53658;PMS5003;41524;35.624;139.698;2023-01-15T19:00:09;26.00;20.00;
53658;PMS5003;41524;35.624;139.698;2023-01-15T19:05:09;28.00;24.00;
53658;PMS5003;41524;35.624;139.698;2023-01-15T19:10:09;40.00;35.00;
53658;PMS5003;41524;35.624;139.698;2023-01-15T19:15:11;28.00;28.00;
53658;PMS5003;41524;35.624;139.698;2023-01-15T19:20:10;31.00;30.00;
53658;PMS5003;41524;35.624;139.698;2023-01-15T19:25:10;31.00;28.00;
53658;PMS5003;41524;35.624;139.698;2023-01-15T19:30:10;32.00;31.00;
53658;PMS5003;41524;35.624;139.698;2023-01-15T19:35:09;33.00;33.00;
53658;PMS5003;41524;35.624;139.698;2023-01-15T19:40:09;39.00;33.00;
53658;PMS5003;41524;35.624;139.698;2023-01-15T19:45:09;20.00;19.00;
53658;PMS5003;41524;35.624;139.698;2023-01-15T19:50:12;25.00;24.00;
53658;PMS5003;41524;35.624;139.698;2023-01-15T19:55:11;27.00;27.00;
53658;PMS5003;41524;35.624;139.698;2023-01-15T20:00:15;30.00;27.00;
53658;PMS5003;41524;35.624;139.698;2023-01-15T20:05:09;23.00;18.00;
53658;PMS5003;41524;35.624;139.698;2023-01-15T20:10:10;32.00;28.00;
53658;PMS5003;41524;35.624;139.698;2023-01-15T20:15:10;29.00;28.00;
53658;PMS5003;41524;35.624;139.698;2023-01-15T20:20:10;35.00;30.00;
53658;PMS5003;41524;35.624;139.698;2023-01-15T20:25:09;23.00;21.00;
53658;PMS5003;41524;35.624;139.698;2023-01-15T20:30:15;42.00;37.00;
53658;PMS5003;41524;35.624;139.698;2023-01-15T20:35:11;16.00;15.00;
53658;PMS5003;41524;35.624;139.698;2023-01-15T20:40:15;23.00;22.00;
53658;PMS5003;41524;35.624;139.698;2023-01-15T20:45:10;26.00;25.00;
53658;PMS5003;41524;35.624;139.698;2023-01-15T20:50:09;27.00;24.00;
53658;PMS5003;41524;35.624;139.698;2023-01-15T20:55:09;20.00;19.00;
53658;PMS5003;41524;35.624;139.698;2023-01-15T21:00:15;25.00;24.00;
53658;PMS5003;41524;35.624;139.698;2023-01-15T21:05:09;26.00;23.00;
53658;PMS5003;41524;35.624;139.698;2023-01-15T21:10:10;27.00;25.00;
53658;PMS5003;41524;35.624;139.698;2023-01-15T21:15:09;30.00;25.00;
53658;PMS5003;41524;35.624;139.698;2023-01-15T21:20:14;25.00;24.00;
53658;PMS5003;41524;35.624;139.698;2023-01-15T21:25:11;25.00;23.00;
53658;PMS5003;41524;35.624;139.698;2023-01-15T21:30:10;20.00;17.00;
53658;PMS5003;41524;35.624;139.698;2023-01-15T21:35:09;23.00;22.00;
53658;PMS5003;41524;35.624;139.698;2023-01-15T21:40:10;26.00;22.00;
53658;PMS5003;41524;35.624;139.698;2023-01-15T21:45:10;21.00;20.00;
53658;PMS5003;41524;35.624;139.698;2023-01-15T21:50:09;20.00;19.00;
53658;PMS5003;41524;35.624;139.698;2023-01-15T21:55:09;22.00;21.00;
53658;PMS5003;41524;35.624;139.698;2023-01-15T22:00:14;28.00;24.00;
53658;PMS5003;41524;35.624;139.698;2023-01-15T22:05:09;23.00;22.00;
53658;PMS5003;41524;35.624;139.698;2023-01-15T22:10:10;24.00;18.00;
53658;PMS5003;41524;35.624;139.698;2023-01-15T22:15:19;40.00;33.00;
53658;PMS5003;41524;35.624;139.698;2023-01-15T22:20:10;27.00;26.00;
53658;PMS5003;41524;35.624;139.698;2023-01-15T22:25:11;18.00;18.00;
53658;PMS5003;41524;35.624;139.698;2023-01-15T22:30:11;26.00;24.00;
53658;PMS5003;41524;35.624;139.698;2023-01-15T22:35:10;25.00;23.00;
53658;PMS5003;41524;35.624;139.698;2023-01-15T22:40:09;27.00;24.00;
53658;PMS5003;41524;35.624;139.698;2023-01-15T22:45:09;21.00;19.00;
53658;PMS5003;41524;35.624;139.698;2023-01-15T22:50:15;24.00;21.00;
53658;PMS5003;41524;35.624;139.698;2023-01-15T22:55:09;21.00;19.00;
53658;PMS5003;41524;35.624;139.698;2023-01-15T23:00:16;21.00;18.00;
53658;PMS5003;41524;35.624;139.698;2023-01-15T23:05:09;54.00;51.00;
53658;PMS5003;41524;35.624;139.698;2023-01-15T23:10:10;23.00;20.00;
53658;PMS5003;41524;35.624;139.698;2023-01-15T23:15:10;20.00;18.00;
53658;PMS5003;41524;35.624;139.698;2023-01-15T23:20:10;35.00;32.00;
53658;PMS5003;41524;35.624;139.698;2023-01-15T23:25:09;37.00;36.00;
53658;PMS5003;41524;35.624;139.698;2023-01-15T23:30:12;33.00;25.00;
53658;PMS5003;41524;35.624;139.698;2023-01-15T23:35:09;43.00;34.00;
53658;PMS5003;41524;35.624;139.698;2023-01-15T23:40:09;28.00;26.00;
53658;PMS5003;41524;35.624;139.698;2023-01-15T23:45:09;36.00;27.00;
53658;PMS5003;41524;35.624;139.698;2023-01-15T23:50:09;19.00;17.00;
53658;PMS5003;41524;35.624;139.698;2023-01-15T23:55:09;17.00;15.00;
